»·PEaware :: N800DW KSBD-KSBA

N800DW :: KSBD-KSBA

FLIGHT INFORMATION

Flight Status: Arrived
Operator: Privately registered:
United States
More flights under this callsign
Pilot: Scott L. (17677)
Aircraft: PIPER PA-30 TWIN COMANCHE
(PA30)
More flights by this aircraft type
Origin: KSBD San Bernardino Intl
United States
Destination: KSBA Santa Barbara Mun
United States
More flights between these airports :: More routes between these airports
Route: +PDZ V186 DEANO V27 KWANG
File this flight plan on PilotEdge
Remarks:
Altitude:
(Current/Filed)
6,000ft
Speed:
(Current/Filed)
180kts
Departed: 06-Sep-18 07:04 PM
Arrived: 06-Sep-18 07:59 PM
Distance/Time
Traveled:
131nm/0:55
Distance/Time
To Go:
Arrived

Flight Plot

Page will automatically refresh every two minutes.


Map Options




Map Legend


Flown Route
Filed Route
Departure Airport
Arrival Airport
Navaid (VOR, NDB)
Fix

Horizontal Profiles

Position Reports

Time Latitude Longitude Heading Altitude Ground
Speed
06-Sep-18 18:49 34.096435 -117.241236 241 1131ft 0kts
06-Sep-18 18:50 34.096435 -117.241236 241 1131ft 0kts
06-Sep-18 18:51 34.096435 -117.241236 241 1131ft 0kts
06-Sep-18 18:52 34.096435 -117.241236 241 1131ft 0kts
06-Sep-18 18:53 34.096435 -117.241236 241 1131ft 0kts
06-Sep-18 18:54 34.096435 -117.241236 241 1131ft 0kts
06-Sep-18 18:55 34.096435 -117.241236 241 1131ft 0kts
06-Sep-18 18:56 34.096435 -117.241236 241 1131ft 0kts
06-Sep-18 18:57 34.096435 -117.241236 241 1131ft 0kts
06-Sep-18 18:58 34.096435 -117.241236 241 1131ft 0kts
06-Sep-18 18:59 34.096435 -117.241236 241 1131ft 0kts
06-Sep-18 19:00 34.096435 -117.241236 241 1131ft 0kts
06-Sep-18 19:01 34.096435 -117.241236 241 1131ft 0kts
06-Sep-18 19:02 34.095743 -117.241866 212 1131ft 12kts
06-Sep-18 19:03 34.097025 -117.235378 65 1132ft 31kts
06-Sep-18 19:04 34.100365 -117.224146 71 1132ft 38kts
06-Sep-18 19:05 34.100052 -117.219737 201 1132ft 13kts
06-Sep-18 19:06 34.089763 -117.242967 211 2035ft 86kts
06-Sep-18 19:07 34.072782 -117.272564 236 2785ft 126kts
06-Sep-18 19:08 34.052824 -117.306866 234 3719ft 125kts
06-Sep-18 19:09 34.032654 -117.340729 232 4620ft 124kts
06-Sep-18 19:09 34.015867 -117.368730 231 5341ft 124kts
06-Sep-18 19:11 33.991153 -117.409762 238 6003ft 150kts
06-Sep-18 19:12 33.965368 -117.452617 238 5991ft 167kts
06-Sep-18 19:13 33.937861 -117.498238 238 5987ft 170kts
06-Sep-18 19:13 33.923507 -117.538861 290 5988ft 159kts
06-Sep-18 19:15 33.941097 -117.596951 293 6000ft 158kts
06-Sep-18 19:16 33.957224 -117.646324 294 6000ft 158kts
06-Sep-18 19:16 33.970454 -117.686510 294 6000ft 159kts
06-Sep-18 19:17 33.986746 -117.735927 293 5999ft 159kts
06-Sep-18 19:18 34.003054 -117.785518 293 6000ft 159kts
06-Sep-18 19:20 34.021858 -117.842704 293 6045ft 157kts
06-Sep-18 19:20 34.035220 -117.883494 294 6045ft 157kts
06-Sep-18 19:21 34.051212 -117.932294 293 6045ft 157kts
06-Sep-18 19:22 34.067132 -117.980915 294 6044ft 158kts
06-Sep-18 19:23 34.083147 -118.030019 293 6045ft 157kts
06-Sep-18 19:24 34.099200 -118.079320 293 6009ft 159kts
06-Sep-18 19:25 34.115293 -118.128767 295 6009ft 159kts
06-Sep-18 19:26 34.131186 -118.177616 293 6026ft 158kts
06-Sep-18 19:27 34.140535 -118.229584 282 6027ft 161kts
06-Sep-18 19:28 34.148107 -118.282651 281 6026ft 161kts
06-Sep-18 19:29 34.155386 -118.335676 281 6017ft 160kts
06-Sep-18 19:30 34.162583 -118.388757 281 6016ft 160kts
06-Sep-18 19:31 34.169739 -118.441655 282 6016ft 159kts
06-Sep-18 19:32 34.176814 -118.494221 282 6017ft 160kts
06-Sep-18 19:33 34.183920 -118.547256 282 6017ft 159kts
06-Sep-18 19:34 34.190972 -118.599924 282 6017ft 159kts
06-Sep-18 19:35 34.197888 -118.651855 281 6018ft 159kts
06-Sep-18 19:36 34.204465 -118.701363 281 6018ft 160kts
06-Sep-18 19:37 34.211472 -118.754359 281 6017ft 160kts
06-Sep-18 19:38 34.218463 -118.807341 281 6017ft 159kts
06-Sep-18 19:39 34.225455 -118.860480 281 5988ft 161kts
06-Sep-18 19:40 34.232339 -118.912967 282 5990ft 162kts
06-Sep-18 19:41 34.231126 -118.966473 278 5991ft 162kts
06-Sep-18 19:42 34.238217 -119.020302 282 5989ft 162kts
06-Sep-18 19:43 34.245961 -119.073971 283 5989ft 162kts
06-Sep-18 19:44 34.253771 -119.127731 283 5989ft 162kts
06-Sep-18 19:45 34.261567 -119.181289 283 5990ft 162kts
06-Sep-18 19:46 34.269389 -119.235182 284 5990ft 162kts
06-Sep-18 19:47 34.277096 -119.288879 282 5989ft 162kts
06-Sep-18 19:48 34.284718 -119.342585 283 5989ft 162kts
06-Sep-18 19:49 34.292439 -119.396150 283 5990ft 162kts
06-Sep-18 19:51 34.300079 -119.449564 283 6036ft 162kts
06-Sep-18 19:52 34.308169 -119.506184 283 5467ft 178kts
06-Sep-18 19:53 34.327560 -119.561171 297 4487ft 181kts
06-Sep-18 19:54 34.349081 -119.616596 296 3349ft 180kts
06-Sep-18 19:55 34.368606 -119.667109 295 3011ft 158kts
06-Sep-18 19:56 34.386949 -119.715616 289 2594ft 170kts
06-Sep-18 19:57 34.405056 -119.764566 294 1491ft 139kts
06-Sep-18 19:58 34.416731 -119.795495 292 679ft 79kts
06-Sep-18 19:59 34.424586 -119.818514 292 442ft 74kts
06-Sep-18 20:00 34.427479 -119.840868 262 15ft 53kts
06-Sep-18 20:01 34.429003 -119.844227 66 15ft 20kts

Navigation Log

Ident Type
1. KSBD Airport
2. PDZ Navaid
3. TIFNI Fix
4. BAYJY Fix
5. ADAMM Fix
6. PIRRO Fix
7. ELMOO Fix
8. PURMS Fix
9. DARTS Fix
10. VNY Navaid
11. SESPE Fix
12. FIM Navaid
13. HENER Fix
14. DEANO Fix
15. KWANG Fix
16. KSBA Airport